sensor_id;sensor_type;location;lat;lon;timestamp;P1;durP1;ratioP1;P2;durP2;ratioP2
10450;SDS011;5273;51.290;6.918;2023-09-19T00:00:55;8.35;;;2.33;;
10450;SDS011;5273;51.290;6.918;2023-09-19T00:03:23;8.70;;;2.85;;
10450;SDS011;5273;51.290;6.918;2023-09-19T00:05:52;6.25;;;2.28;;
10450;SDS011;5273;51.290;6.918;2023-09-19T00:08:20;8.27;;;2.70;;
10450;SDS011;5273;51.290;6.918;2023-09-19T00:10:50;4.80;;;2.25;;
10450;SDS011;5273;51.290;6.918;2023-09-19T00:13:18;7.57;;;2.00;;
10450;SDS011;5273;51.290;6.918;2023-09-19T00:15:46;8.10;;;2.20;;
10450;SDS011;5273;51.290;6.918;2023-09-19T00:18:15;9.38;;;3.33;;
10450;SDS011;5273;51.290;6.918;2023-09-19T00:20:42;5.30;;;2.08;;
10450;SDS011;5273;51.290;6.918;2023-09-19T00:23:14;8.45;;;2.03;;
10450;SDS011;5273;51.290;6.918;2023-09-19T00:25:41;15.65;;;2.40;;
10450;SDS011;5273;51.290;6.918;2023-09-19T00:28:08;6.90;;;2.45;;
10450;SDS011;5273;51.290;6.918;2023-09-19T00:30:35;10.13;;;3.50;;
10450;SDS011;5273;51.290;6.918;2023-09-19T00:33:03;6.97;;;2.10;;
10450;SDS011;5273;51.290;6.918;2023-09-19T00:35:32;7.45;;;2.10;;
10450;SDS011;5273;51.290;6.918;2023-09-19T00:37:59;4.75;;;2.22;;
10450;SDS011;5273;51.290;6.918;2023-09-19T00:40:27;10.52;;;2.90;;
10450;SDS011;5273;51.290;6.918;2023-09-19T00:42:57;9.38;;;2.45;;
10450;SDS011;5273;51.290;6.918;2023-09-19T00:45:25;9.25;;;2.30;;
10450;SDS011;5273;51.290;6.918;2023-09-19T00:47:53;11.35;;;2.67;;
10450;SDS011;5273;51.290;6.918;2023-09-19T00:50:21;7.78;;;2.72;;
10450;SDS011;5273;51.290;6.918;2023-09-19T00:52:50;4.55;;;1.95;;
10450;SDS011;5273;51.290;6.918;2023-09-19T00:55:21;5.43;;;1.80;;
10450;SDS011;5273;51.290;6.918;2023-09-19T00:57:49;7.80;;;2.40;;
10450;SDS011;5273;51.290;6.918;2023-09-19T01:00:17;9.75;;;2.60;;
10450;SDS011;5273;51.290;6.918;2023-09-19T01:02:45;6.82;;;2.45;;
10450;SDS011;5273;51.290;6.918;2023-09-19T01:05:13;8.05;;;2.58;;
10450;SDS011;5273;51.290;6.918;2023-09-19T01:07:40;6.55;;;2.13;;
10450;SDS011;5273;51.290;6.918;2023-09-19T01:10:08;6.57;;;1.95;;
10450;SDS011;5273;51.290;6.918;2023-09-19T01:12:39;8.40;;;2.28;;
10450;SDS011;5273;51.290;6.918;2023-09-19T01:15:15;6.95;;;2.10;;
10450;SDS011;5273;51.290;6.918;2023-09-19T01:17:52;3.45;;;1.90;;
10450;SDS011;5273;51.290;6.918;2023-09-19T01:20:26;6.65;;;2.30;;
10450;SDS011;5273;51.290;6.918;2023-09-19T01:23:06;5.07;;;2.20;;
10450;SDS011;5273;51.290;6.918;2023-09-19T01:25:42;9.10;;;2.20;;
10450;SDS011;5273;51.290;6.918;2023-09-19T01:28:39;7.03;;;2.20;;
10450;SDS011;5273;51.290;6.918;2023-09-19T01:31:21;8.20;;;2.40;;
10450;SDS011;5273;51.290;6.918;2023-09-19T01:33:56;9.50;;;2.85;;
10450;SDS011;5273;51.290;6.918;2023-09-19T01:36:26;8.73;;;2.70;;
10450;SDS011;5273;51.290;6.918;2023-09-19T01:38:54;3.53;;;2.10;;
10450;SDS011;5273;51.290;6.918;2023-09-19T01:41:26;8.65;;;2.63;;
10450;SDS011;5273;51.290;6.918;2023-09-19T01:43:59;9.95;;;2.35;;
10450;SDS011;5273;51.290;6.918;2023-09-19T01:46:33;6.97;;;2.40;;
10450;SDS011;5273;51.290;6.918;2023-09-19T01:49:04;6.47;;;2.40;;
10450;SDS011;5273;51.290;6.918;2023-09-19T01:51:55;8.48;;;2.70;;
10450;SDS011;5273;51.290;6.918;2023-09-19T01:54:30;6.15;;;2.00;;
10450;SDS011;5273;51.290;6.918;2023-09-19T01:57:01;12.55;;;2.28;;
10450;SDS011;5273;51.290;6.918;2023-09-19T01:59:38;5.65;;;2.35;;
10450;SDS011;5273;51.290;6.918;2023-09-19T02:02:13;5.90;;;2.67;;
10450;SDS011;5273;51.290;6.918;2023-09-19T02:04:41;9.15;;;2.75;;
10450;SDS011;5273;51.290;6.918;2023-09-19T02:07:08;12.20;;;2.75;;
10450;SDS011;5273;51.290;6.918;2023-09-19T02:09:35;11.32;;;2.35;;
10450;SDS011;5273;51.290;6.918;2023-09-19T02:12:04;6.53;;;2.25;;
10450;SDS011;5273;51.290;6.918;2023-09-19T02:14:32;8.00;;;3.05;;
10450;SDS011;5273;51.290;6.918;2023-09-19T02:16:59;10.68;;;2.30;;
10450;SDS011;5273;51.290;6.918;2023-09-19T02:19:27;9.80;;;2.45;;
10450;SDS011;5273;51.290;6.918;2023-09-19T02:21:54;8.07;;;2.13;;
10450;SDS011;5273;51.290;6.918;2023-09-19T02:24:21;9.18;;;2.35;;
10450;SDS011;5273;51.290;6.918;2023-09-19T02:26:49;4.32;;;2.08;;
10450;SDS011;5273;51.290;6.918;2023-09-19T02:29:16;9.07;;;2.50;;
10450;SDS011;5273;51.290;6.918;2023-09-19T02:31:43;10.35;;;3.15;;
10450;SDS011;5273;51.290;6.918;2023-09-19T02:34:11;10.10;;;2.53;;
10450;SDS011;5273;51.290;6.918;2023-09-19T02:36:40;9.57;;;2.78;;
10450;SDS011;5273;51.290;6.918;2023-09-19T02:39:09;6.97;;;2.58;;
10450;SDS011;5273;51.290;6.918;2023-09-19T02:41:36;11.25;;;2.65;;
10450;SDS011;5273;51.290;6.918;2023-09-19T02:44:04;8.63;;;2.47;;
10450;SDS011;5273;51.290;6.918;2023-09-19T02:46:32;4.20;;;2.33;;
10450;SDS011;5273;51.290;6.918;2023-09-19T02:49:01;10.10;;;2.80;;
10450;SDS011;5273;51.290;6.918;2023-09-19T02:51:28;10.27;;;2.42;;
10450;SDS011;5273;51.290;6.918;2023-09-19T02:53:57;6.78;;;2.17;;
10450;SDS011;5273;51.290;6.918;2023-09-19T02:56:24;8.50;;;2.85;;
10450;SDS011;5273;51.290;6.918;2023-09-19T02:58:51;7.18;;;2.25;;
10450;SDS011;5273;51.290;6.918;2023-09-19T03:01:20;6.13;;;2.10;;
10450;SDS011;5273;51.290;6.918;2023-09-19T03:03:47;7.53;;;2.33;;
10450;SDS011;5273;51.290;6.918;2023-09-19T03:06:14;11.73;;;2.67;;
10450;SDS011;5273;51.290;6.918;2023-09-19T03:08:45;9.63;;;2.30;;
10450;SDS011;5273;51.290;6.918;2023-09-19T03:11:15;10.55;;;2.20;;
10450;SDS011;5273;51.290;6.918;2023-09-19T03:13:49;9.18;;;2.08;;
10450;SDS011;5273;51.290;6.918;2023-09-19T03:16:17;7.30;;;2.38;;
10450;SDS011;5273;51.290;6.918;2023-09-19T03:18:46;8.05;;;2.05;;
10450;SDS011;5273;51.290;6.918;2023-09-19T03:21:13;7.82;;;2.40;;
10450;SDS011;5273;51.290;6.918;2023-09-19T03:23:40;6.97;;;2.53;;
10450;SDS011;5273;51.290;6.918;2023-09-19T03:26:10;8.80;;;2.33;;
10450;SDS011;5273;51.290;6.918;2023-09-19T03:28:39;8.65;;;2.25;;
10450;SDS011;5273;51.290;6.918;2023-09-19T03:31:06;8.05;;;2.50;;
10450;SDS011;5273;51.290;6.918;2023-09-19T03:33:33;6.00;;;2.10;;
10450;SDS011;5273;51.290;6.918;2023-09-19T03:36:01;7.80;;;2.28;;
10450;SDS011;5273;51.290;6.918;2023-09-19T03:38:30;7.60;;;3.03;;
10450;SDS011;5273;51.290;6.918;2023-09-19T03:40:57;7.93;;;2.47;;
10450;SDS011;5273;51.290;6.918;2023-09-19T03:43:24;6.75;;;2.58;;
10450;SDS011;5273;51.290;6.918;2023-09-19T03:45:52;8.68;;;2.42;;
10450;SDS011;5273;51.290;6.918;2023-09-19T03:48:19;5.60;;;2.38;;
10450;SDS011;5273;51.290;6.918;2023-09-19T03:50:46;8.38;;;2.70;;
10450;SDS011;5273;51.290;6.918;2023-09-19T03:53:13;5.03;;;2.13;;
10450;SDS011;5273;51.290;6.918;2023-09-19T03:55:40;6.65;;;2.58;;
10450;SDS011;5273;51.290;6.918;2023-09-19T03:58:07;6.25;;;2.13;;
10450;SDS011;5273;51.290;6.918;2023-09-19T04:00:33;8.13;;;2.45;;
10450;SDS011;5273;51.290;6.918;2023-09-19T04:03:02;7.35;;;2.35;;
10450;SDS011;5273;51.290;6.918;2023-09-19T04:05:31;8.43;;;2.30;;
10450;SDS011;5273;51.290;6.918;2023-09-19T04:07:58;4.88;;;2.05;;
10450;SDS011;5273;51.290;6.918;2023-09-19T04:10:24;10.95;;;2.40;;
10450;SDS011;5273;51.290;6.918;2023-09-19T04:12:51;9.25;;;2.30;;
10450;SDS011;5273;51.290;6.918;2023-09-19T04:15:19;7.07;;;2.50;;
10450;SDS011;5273;51.290;6.918;2023-09-19T04:17:47;10.77;;;2.65;;
10450;SDS011;5273;51.290;6.918;2023-09-19T04:20:16;7.38;;;2.17;;
10450;SDS011;5273;51.290;6.918;2023-09-19T04:22:44;6.53;;;2.13;;
10450;SDS011;5273;51.290;6.918;2023-09-19T04:25:11;7.95;;;2.33;;
10450;SDS011;5273;51.290;6.918;2023-09-19T04:27:38;9.43;;;2.38;;
10450;SDS011;5273;51.290;6.918;2023-09-19T04:30:07;9.30;;;2.22;;
10450;SDS011;5273;51.290;6.918;2023-09-19T04:32:36;7.30;;;2.22;;
10450;SDS011;5273;51.290;6.918;2023-09-19T04:35:05;11.77;;;2.53;;
10450;SDS011;5273;51.290;6.918;2023-09-19T04:37:36;7.20;;;2.17;;
10450;SDS011;5273;51.290;6.918;2023-09-19T04:40:04;9.27;;;2.30;;
10450;SDS011;5273;51.290;6.918;2023-09-19T04:42:37;9.73;;;2.55;;
10450;SDS011;5273;51.290;6.918;2023-09-19T04:45:05;8.85;;;2.38;;
10450;SDS011;5273;51.290;6.918;2023-09-19T04:47:34;10.00;;;2.22;;
10450;SDS011;5273;51.290;6.918;2023-09-19T04:50:05;11.85;;;3.00;;
10450;SDS011;5273;51.290;6.918;2023-09-19T04:52:37;9.60;;;2.75;;
10450;SDS011;5273;51.290;6.918;2023-09-19T04:55:07;5.53;;;2.17;;
10450;SDS011;5273;51.290;6.918;2023-09-19T04:57:34;7.40;;;2.15;;
10450;SDS011;5273;51.290;6.918;2023-09-19T05:00:02;8.07;;;2.55;;
10450;SDS011;5273;51.290;6.918;2023-09-19T05:02:37;6.07;;;2.40;;
10450;SDS011;5273;51.290;6.918;2023-09-19T05:05:04;11.10;;;2.92;;
10450;SDS011;5273;51.290;6.918;2023-09-19T05:07:33;5.07;;;2.25;;
10450;SDS011;5273;51.290;6.918;2023-09-19T05:10:01;9.77;;;2.30;;
10450;SDS011;5273;51.290;6.918;2023-09-19T05:12:30;14.48;;;2.90;;
10450;SDS011;5273;51.290;6.918;2023-09-19T05:14:57;7.63;;;2.85;;
10450;SDS011;5273;51.290;6.918;2023-09-19T05:17:24;9.57;;;2.60;;
10450;SDS011;5273;51.290;6.918;2023-09-19T05:19:51;8.23;;;2.30;;
10450;SDS011;5273;51.290;6.918;2023-09-19T05:22:18;12.77;;;2.83;;
10450;SDS011;5273;51.290;6.918;2023-09-19T05:24:45;7.40;;;2.45;;
10450;SDS011;5273;51.290;6.918;2023-09-19T05:27:14;11.82;;;2.47;;
10450;SDS011;5273;51.290;6.918;2023-09-19T05:29:41;9.48;;;2.58;;
10450;SDS011;5273;51.290;6.918;2023-09-19T05:32:09;6.97;;;2.33;;
10450;SDS011;5273;51.290;6.918;2023-09-19T05:34:36;8.02;;;2.20;;
10450;SDS011;5273;51.290;6.918;2023-09-19T05:37:03;9.88;;;2.95;;
10450;SDS011;5273;51.290;6.918;2023-09-19T05:39:32;9.05;;;2.50;;
10450;SDS011;5273;51.290;6.918;2023-09-19T05:41:59;10.23;;;2.60;;
10450;SDS011;5273;51.290;6.918;2023-09-19T05:44:27;8.70;;;2.20;;
10450;SDS011;5273;51.290;6.918;2023-09-19T05:46:54;8.93;;;2.85;;
10450;SDS011;5273;51.290;6.918;2023-09-19T05:49:23;9.98;;;2.40;;
10450;SDS011;5273;51.290;6.918;2023-09-19T05:51:50;11.63;;;2.67;;
10450;SDS011;5273;51.290;6.918;2023-09-19T05:54:19;8.63;;;2.78;;
10450;SDS011;5273;51.290;6.918;2023-09-19T05:56:46;7.82;;;2.47;;
10450;SDS011;5273;51.290;6.918;2023-09-19T05:59:13;11.73;;;2.58;;
10450;SDS011;5273;51.290;6.918;2023-09-19T06:01:42;8.68;;;2.60;;
10450;SDS011;5273;51.290;6.918;2023-09-19T06:04:09;12.52;;;2.72;;
10450;SDS011;5273;51.290;6.918;2023-09-19T06:06:36;9.90;;;2.70;;
10450;SDS011;5273;51.290;6.918;2023-09-19T06:09:05;7.90;;;3.17;;
10450;SDS011;5273;51.290;6.918;2023-09-19T06:11:33;10.63;;;2.28;;
10450;SDS011;5273;51.290;6.918;2023-09-19T06:14:00;8.38;;;2.45;;
10450;SDS011;5273;51.290;6.918;2023-09-19T06:16:27;8.05;;;2.50;;
10450;SDS011;5273;51.290;6.918;2023-09-19T06:18:56;6.53;;;2.08;;
10450;SDS011;5273;51.290;6.918;2023-09-19T06:21:24;10.18;;;2.58;;
10450;SDS011;5273;51.290;6.918;2023-09-19T06:23:51;8.82;;;2.40;;
10450;SDS011;5273;51.290;6.918;2023-09-19T06:26:18;10.10;;;2.50;;
10450;SDS011;5273;51.290;6.918;2023-09-19T06:28:45;8.57;;;2.53;;
10450;SDS011;5273;51.290;6.918;2023-09-19T06:31:12;11.55;;;2.78;;
10450;SDS011;5273;51.290;6.918;2023-09-19T06:33:39;8.15;;;2.80;;
10450;SDS011;5273;51.290;6.918;2023-09-19T06:36:07;7.60;;;2.63;;
10450;SDS011;5273;51.290;6.918;2023-09-19T06:38:34;7.70;;;2.53;;
10450;SDS011;5273;51.290;6.918;2023-09-19T06:41:01;9.73;;;2.90;;
10450;SDS011;5273;51.290;6.918;2023-09-19T06:43:30;7.95;;;2.60;;
10450;SDS011;5273;51.290;6.918;2023-09-19T06:45:59;6.60;;;2.17;;
10450;SDS011;5273;51.290;6.918;2023-09-19T06:48:26;8.80;;;3.10;;
10450;SDS011;5273;51.290;6.918;2023-09-19T06:50:54;12.82;;;3.10;;
10450;SDS011;5273;51.290;6.918;2023-09-19T06:53:22;6.28;;;1.92;;
10450;SDS011;5273;51.290;6.918;2023-09-19T06:55:49;10.88;;;2.47;;
10450;SDS011;5273;51.290;6.918;2023-09-19T06:58:16;9.70;;;2.85;;
10450;SDS011;5273;51.290;6.918;2023-09-19T07:00:44;8.05;;;2.00;;
10450;SDS011;5273;51.290;6.918;2023-09-19T07:03:13;10.75;;;2.58;;
10450;SDS011;5273;51.290;6.918;2023-09-19T07:05:41;18.40;;;2.83;;
10450;SDS011;5273;51.290;6.918;2023-09-19T07:08:09;7.32;;;2.40;;
10450;SDS011;5273;51.290;6.918;2023-09-19T07:10:38;9.40;;;2.55;;
10450;SDS011;5273;51.290;6.918;2023-09-19T07:13:07;14.05;;;2.17;;
10450;SDS011;5273;51.290;6.918;2023-09-19T07:15:35;8.30;;;2.35;;
10450;SDS011;5273;51.290;6.918;2023-09-19T07:18:04;4.68;;;1.90;;
10450;SDS011;5273;51.290;6.918;2023-09-19T07:20:32;7.43;;;2.42;;
10450;SDS011;5273;51.290;6.918;2023-09-19T07:22:59;5.03;;;2.30;;
10450;SDS011;5273;51.290;6.918;2023-09-19T07:25:26;9.95;;;2.80;;
10450;SDS011;5273;51.290;6.918;2023-09-19T07:27:56;6.20;;;2.30;;
10450;SDS011;5273;51.290;6.918;2023-09-19T07:30:24;9.13;;;2.03;;
10450;SDS011;5273;51.290;6.918;2023-09-19T07:32:52;8.30;;;2.63;;
10450;SDS011;5273;51.290;6.918;2023-09-19T07:35:19;9.15;;;2.60;;
10450;SDS011;5273;51.290;6.918;2023-09-19T07:37:46;12.60;;;3.08;;
10450;SDS011;5273;51.290;6.918;2023-09-19T07:40:14;7.55;;;2.80;;
10450;SDS011;5273;51.290;6.918;2023-09-19T07:42:42;6.45;;;2.53;;
10450;SDS011;5273;51.290;6.918;2023-09-19T07:45:13;6.38;;;2.25;;
10450;SDS011;5273;51.290;6.918;2023-09-19T07:47:43;6.80;;;2.20;;
10450;SDS011;5273;51.290;6.918;2023-09-19T07:50:10;7.32;;;1.95;;
10450;SDS011;5273;51.290;6.918;2023-09-19T07:52:37;6.22;;;2.65;;
10450;SDS011;5273;51.290;6.918;2023-09-19T07:55:05;9.88;;;2.65;;
10450;SDS011;5273;51.290;6.918;2023-09-19T07:57:36;8.52;;;2.70;;
10450;SDS011;5273;51.290;6.918;2023-09-19T08:00:03;5.57;;;1.98;;
10450;SDS011;5273;51.290;6.918;2023-09-19T08:02:35;6.57;;;2.30;;
10450;SDS011;5273;51.290;6.918;2023-09-19T08:05:03;5.60;;;2.13;;
10450;SDS011;5273;51.290;6.918;2023-09-19T08:07:33;6.13;;;2.30;;
10450;SDS011;5273;51.290;6.918;2023-09-19T08:10:01;15.02;;;2.58;;
10450;SDS011;5273;51.290;6.918;2023-09-19T08:12:28;5.75;;;2.00;;
10450;SDS011;5273;51.290;6.918;2023-09-19T08:14:56;6.85;;;2.30;;
10450;SDS011;5273;51.290;6.918;2023-09-19T08:17:23;7.35;;;2.50;;
10450;SDS011;5273;51.290;6.918;2023-09-19T08:19:51;6.95;;;2.35;;
10450;SDS011;5273;51.290;6.918;2023-09-19T08:22:19;10.80;;;2.88;;
10450;SDS011;5273;51.290;6.918;2023-09-19T08:24:46;7.57;;;2.38;;
10450;SDS011;5273;51.290;6.918;2023-09-19T08:27:13;5.60;;;2.70;;
10450;SDS011;5273;51.290;6.918;2023-09-19T08:29:43;6.00;;;1.98;;
10450;SDS011;5273;51.290;6.918;2023-09-19T08:32:10;7.38;;;2.53;;
10450;SDS011;5273;51.290;6.918;2023-09-19T08:34:37;8.75;;;2.72;;
10450;SDS011;5273;51.290;6.918;2023-09-19T08:37:05;4.32;;;1.92;;
10450;SDS011;5273;51.290;6.918;2023-09-19T08:39:32;7.30;;;2.40;;
10450;SDS011;5273;51.290;6.918;2023-09-19T08:42:02;8.15;;;2.53;;
10450;SDS011;5273;51.290;6.918;2023-09-19T08:44:29;8.00;;;2.30;;
10450;SDS011;5273;51.290;6.918;2023-09-19T08:47:04;9.40;;;2.10;;
10450;SDS011;5273;51.290;6.918;2023-09-19T08:49:36;7.47;;;2.38;;
10450;SDS011;5273;51.290;6.918;2023-09-19T08:52:14;6.20;;;2.40;;
10450;SDS011;5273;51.290;6.918;2023-09-19T08:54:46;4.72;;;2.45;;
10450;SDS011;5273;51.290;6.918;2023-09-19T08:57:14;6.38;;;2.65;;
10450;SDS011;5273;51.290;6.918;2023-09-19T08:59:46;8.52;;;2.38;;
10450;SDS011;5273;51.290;6.918;2023-09-19T09:02:14;6.90;;;2.90;;
10450;SDS011;5273;51.290;6.918;2023-09-19T09:04:44;8.07;;;2.42;;
10450;SDS011;5273;51.290;6.918;2023-09-19T09:07:14;7.05;;;2.70;;
10450;SDS011;5273;51.290;6.918;2023-09-19T09:09:41;8.13;;;2.63;;
10450;SDS011;5273;51.290;6.918;2023-09-19T09:12:09;6.45;;;2.47;;
10450;SDS011;5273;51.290;6.918;2023-09-19T09:14:38;6.28;;;2.40;;
10450;SDS011;5273;51.290;6.918;2023-09-19T09:17:06;5.93;;;2.42;;
10450;SDS011;5273;51.290;6.918;2023-09-19T09:19:33;4.95;;;2.17;;
10450;SDS011;5273;51.290;6.918;2023-09-19T09:22:07;6.25;;;2.45;;
10450;SDS011;5273;51.290;6.918;2023-09-19T09:24:36;4.47;;;2.55;;
10450;SDS011;5273;51.290;6.918;2023-09-19T09:27:05;10.80;;;2.83;;
10450;SDS011;5273;51.290;6.918;2023-09-19T09:29:42;6.30;;;2.50;;
10450;SDS011;5273;51.290;6.918;2023-09-19T09:32:21;5.35;;;2.47;;
10450;SDS011;5273;51.290;6.918;2023-09-19T09:34:50;6.30;;;2.60;;
10450;SDS011;5273;51.290;6.918;2023-09-19T09:37:18;4.72;;;2.42;;
10450;SDS011;5273;51.290;6.918;2023-09-19T09:39:51;4.07;;;2.45;;
10450;SDS011;5273;51.290;6.918;2023-09-19T09:42:30;7.75;;;2.15;;
10450;SDS011;5273;51.290;6.918;2023-09-19T09:45:13;6.28;;;2.53;;
10450;SDS011;5273;51.290;6.918;2023-09-19T09:47:45;8.80;;;2.50;;
10450;SDS011;5273;51.290;6.918;2023-09-19T09:50:28;6.43;;;2.58;;
10450;SDS011;5273;51.290;6.918;2023-09-19T09:53:21;5.00;;;2.33;;
10450;SDS011;5273;51.290;6.918;2023-09-19T09:55:59;6.07;;;2.53;;
10450;SDS011;5273;51.290;6.918;2023-09-19T09:58:28;6.10;;;2.50;;
10450;SDS011;5273;51.290;6.918;2023-09-19T10:00:56;5.93;;;2.28;;
10450;SDS011;5273;51.290;6.918;2023-09-19T10:03:32;7.93;;;2.53;;
10450;SDS011;5273;51.290;6.918;2023-09-19T10:06:03;7.13;;;2.60;;
10450;SDS011;5273;51.290;6.918;2023-09-19T10:09:00;5.13;;;2.17;;
10450;SDS011;5273;51.290;6.918;2023-09-19T10:11:43;6.72;;;2.67;;
10450;SDS011;5273;51.290;6.918;2023-09-19T10:14:11;6.05;;;2.22;;
10450;SDS011;5273;51.290;6.918;2023-09-19T10:16:45;6.90;;;2.45;;
10450;SDS011;5273;51.290;6.918;2023-09-19T10:19:15;4.97;;;2.22;;
10450;SDS011;5273;51.290;6.918;2023-09-19T10:21:47;6.85;;;2.28;;
10450;SDS011;5273;51.290;6.918;2023-09-19T10:24:15;6.97;;;2.28;;
10450;SDS011;5273;51.290;6.918;2023-09-19T10:26:46;6.63;;;2.10;;
10450;SDS011;5273;51.290;6.918;2023-09-19T10:29:15;8.07;;;2.20;;
10450;SDS011;5273;51.290;6.918;2023-09-19T10:31:44;6.65;;;2.20;;
10450;SDS011;5273;51.290;6.918;2023-09-19T10:34:15;7.15;;;2.50;;
10450;SDS011;5273;51.290;6.918;2023-09-19T10:36:44;5.70;;;2.70;;
10450;SDS011;5273;51.290;6.918;2023-09-19T10:39:12;6.82;;;2.10;;
10450;SDS011;5273;51.290;6.918;2023-09-19T10:41:47;8.55;;;2.60;;
10450;SDS011;5273;51.290;6.918;2023-09-19T10:44:24;6.10;;;2.38;;
10450;SDS011;5273;51.290;6.918;2023-09-19T10:46:53;5.10;;;2.03;;
10450;SDS011;5273;51.290;6.918;2023-09-19T10:49:21;5.85;;;2.20;;
10450;SDS011;5273;51.290;6.918;2023-09-19T10:51:49;4.03;;;2.00;;
10450;SDS011;5273;51.290;6.918;2023-09-19T10:54:20;8.13;;;2.40;;
10450;SDS011;5273;51.290;6.918;2023-09-19T10:56:53;3.38;;;1.95;;
10450;SDS011;5273;51.290;6.918;2023-09-19T10:59:23;5.18;;;2.05;;
10450;SDS011;5273;51.290;6.918;2023-09-19T11:01:59;7.68;;;2.35;;
10450;SDS011;5273;51.290;6.918;2023-09-19T11:04:42;6.45;;;1.92;;
10450;SDS011;5273;51.290;6.918;2023-09-19T11:07:13;3.15;;;1.98;;
10450;SDS011;5273;51.290;6.918;2023-09-19T11:09:42;5.88;;;1.95;;
10450;SDS011;5273;51.290;6.918;2023-09-19T11:12:13;4.60;;;2.20;;
10450;SDS011;5273;51.290;6.918;2023-09-19T11:18:53;6.13;;;2.05;;
10450;SDS011;5273;51.290;6.918;2023-09-19T11:24:28;4.53;;;2.15;;
10450;SDS011;5273;51.290;6.918;2023-09-19T11:27:11;5.82;;;2.08;;
10450;SDS011;5273;51.290;6.918;2023-09-19T11:29:42;6.93;;;2.30;;
10450;SDS011;5273;51.290;6.918;2023-09-19T11:32:09;3.65;;;1.88;;
10450;SDS011;5273;51.290;6.918;2023-09-19T11:34:37;6.15;;;2.30;;
10450;SDS011;5273;51.290;6.918;2023-09-19T11:40:27;5.90;;;2.40;;
10450;SDS011;5273;51.290;6.918;2023-09-19T11:42:57;6.68;;;2.53;;
10450;SDS011;5273;51.290;6.918;2023-09-19T11:48:34;4.93;;;2.20;;
10450;SDS011;5273;51.290;6.918;2023-09-19T11:51:16;5.63;;;1.98;;
10450;SDS011;5273;51.290;6.918;2023-09-19T11:53:52;4.25;;;1.90;;
10450;SDS011;5273;51.290;6.918;2023-09-19T11:56:20;5.88;;;2.35;;
10450;SDS011;5273;51.290;6.918;2023-09-19T11:58:51;7.10;;;2.40;;
10450;SDS011;5273;51.290;6.918;2023-09-19T12:01:42;5.07;;;1.73;;
10450;SDS011;5273;51.290;6.918;2023-09-19T12:04:19;7.90;;;2.33;;
10450;SDS011;5273;51.290;6.918;2023-09-19T12:07:00;7.05;;;2.33;;
10450;SDS011;5273;51.290;6.918;2023-09-19T12:09:27;7.25;;;2.22;;
10450;SDS011;5273;51.290;6.918;2023-09-19T12:11:54;6.00;;;2.30;;
10450;SDS011;5273;51.290;6.918;2023-09-19T12:14:24;5.68;;;2.10;;
10450;SDS011;5273;51.290;6.918;2023-09-19T12:16:54;3.75;;;2.10;;
10450;SDS011;5273;51.290;6.918;2023-09-19T12:19:22;6.97;;;2.00;;
10450;SDS011;5273;51.290;6.918;2023-09-19T12:21:56;6.05;;;2.15;;
10450;SDS011;5273;51.290;6.918;2023-09-19T12:24:24;3.55;;;2.15;;
10450;SDS011;5273;51.290;6.918;2023-09-19T12:26:59;6.18;;;2.20;;
10450;SDS011;5273;51.290;6.918;2023-09-19T12:29:31;6.75;;;2.00;;
10450;SDS011;5273;51.290;6.918;2023-09-19T12:31:59;3.15;;;2.00;;
10450;SDS011;5273;51.290;6.918;2023-09-19T12:34:29;5.95;;;2.08;;
10450;SDS011;5273;51.290;6.918;2023-09-19T12:37:03;4.63;;;1.77;;
10450;SDS011;5273;51.290;6.918;2023-09-19T12:39:36;5.97;;;1.95;;
10450;SDS011;5273;51.290;6.918;2023-09-19T12:42:03;4.93;;;2.28;;
10450;SDS011;5273;51.290;6.918;2023-09-19T12:44:35;4.57;;;1.77;;
10450;SDS011;5273;51.290;6.918;2023-09-19T12:47:08;3.97;;;1.83;;
10450;SDS011;5273;51.290;6.918;2023-09-19T12:52:35;6.05;;;2.05;;
10450;SDS011;5273;51.290;6.918;2023-09-19T12:55:02;3.80;;;1.92;;
10450;SDS011;5273;51.290;6.918;2023-09-19T12:57:32;5.65;;;2.20;;
10450;SDS011;5273;51.290;6.918;2023-09-19T13:00:01;5.55;;;1.80;;
10450;SDS011;5273;51.290;6.918;2023-09-19T13:02:30;4.97;;;1.70;;
10450;SDS011;5273;51.290;6.918;2023-09-19T13:04:58;5.50;;;1.70;;
10450;SDS011;5273;51.290;6.918;2023-09-19T13:07:41;5.03;;;1.75;;
10450;SDS011;5273;51.290;6.918;2023-09-19T13:10:11;6.93;;;1.70;;
10450;SDS011;5273;51.290;6.918;2023-09-19T13:12:40;4.45;;;1.88;;
10450;SDS011;5273;51.290;6.918;2023-09-19T13:15:14;7.22;;;1.52;;
10450;SDS011;5273;51.290;6.918;2023-09-19T13:17:44;3.55;;;1.67;;
10450;SDS011;5273;51.290;6.918;2023-09-19T13:20:21;3.45;;;1.55;;
10450;SDS011;5273;51.290;6.918;2023-09-19T13:22:53;3.22;;;1.70;;
10450;SDS011;5273;51.290;6.918;2023-09-19T13:25:23;2.53;;;1.30;;
10450;SDS011;5273;51.290;6.918;2023-09-19T13:27:51;2.83;;;1.58;;
10450;SDS011;5273;51.290;6.918;2023-09-19T13:30:22;4.90;;;1.70;;
10450;SDS011;5273;51.290;6.918;2023-09-19T13:32:51;4.57;;;1.70;;
10450;SDS011;5273;51.290;6.918;2023-09-19T13:35:19;2.47;;;1.27;;
10450;SDS011;5273;51.290;6.918;2023-09-19T13:37:46;4.50;;;1.60;;
10450;SDS011;5273;51.290;6.918;2023-09-19T13:40:14;3.65;;;1.50;;
10450;SDS011;5273;51.290;6.918;2023-09-19T13:42:42;3.83;;;1.58;;
10450;SDS011;5273;51.290;6.918;2023-09-19T13:45:09;4.28;;;1.40;;
10450;SDS011;5273;51.290;6.918;2023-09-19T13:47:42;4.15;;;1.55;;
10450;SDS011;5273;51.290;6.918;2023-09-19T13:50:09;5.50;;;1.60;;
10450;SDS011;5273;51.290;6.918;2023-09-19T13:52:36;4.05;;;1.35;;
10450;SDS011;5273;51.290;6.918;2023-09-19T13:55:03;4.00;;;1.52;;
10450;SDS011;5273;51.290;6.918;2023-09-19T13:57:31;6.15;;;1.73;;
10450;SDS011;5273;51.290;6.918;2023-09-19T13:59:58;3.80;;;1.40;;
10450;SDS011;5273;51.290;6.918;2023-09-19T14:02:25;2.88;;;1.40;;
10450;SDS011;5273;51.290;6.918;2023-09-19T14:04:54;2.85;;;1.40;;
10450;SDS011;5273;51.290;6.918;2023-09-19T14:07:22;1.85;;;1.25;;
10450;SDS011;5273;51.290;6.918;2023-09-19T14:09:50;4.35;;;1.63;;
10450;SDS011;5273;51.290;6.918;2023-09-19T14:12:17;2.53;;;1.45;;
10450;SDS011;5273;51.290;6.918;2023-09-19T14:14:44;1.92;;;0.95;;
10450;SDS011;5273;51.290;6.918;2023-09-19T14:17:11;3.95;;;1.48;;
10450;SDS011;5273;51.290;6.918;2023-09-19T14:19:40;4.30;;;1.60;;
10450;SDS011;5273;51.290;6.918;2023-09-19T14:22:09;1.67;;;1.17;;
10450;SDS011;5273;51.290;6.918;2023-09-19T14:24:36;3.92;;;1.20;;
10450;SDS011;5273;51.290;6.918;2023-09-19T14:27:03;4.50;;;1.40;;
10450;SDS011;5273;51.290;6.918;2023-09-19T14:29:32;4.10;;;1.40;;
10450;SDS011;5273;51.290;6.918;2023-09-19T14:31:58;2.78;;;1.20;;
10450;SDS011;5273;51.290;6.918;2023-09-19T14:34:25;5.60;;;1.55;;
10450;SDS011;5273;51.290;6.918;2023-09-19T14:36:52;2.80;;;0.98;;
10450;SDS011;5273;51.290;6.918;2023-09-19T14:39:21;1.80;;;1.00;;
10450;SDS011;5273;51.290;6.918;2023-09-19T14:41:48;3.10;;;1.27;;
10450;SDS011;5273;51.290;6.918;2023-09-19T14:44:15;3.80;;;1.25;;
10450;SDS011;5273;51.290;6.918;2023-09-19T14:46:42;3.55;;;1.45;;
10450;SDS011;5273;51.290;6.918;2023-09-19T14:49:10;2.30;;;1.17;;
10450;SDS011;5273;51.290;6.918;2023-09-19T14:51:37;5.68;;;1.75;;
10450;SDS011;5273;51.290;6.918;2023-09-19T14:54:05;3.22;;;1.20;;
10450;SDS011;5273;51.290;6.918;2023-09-19T14:56:35;1.45;;;0.98;;
10450;SDS011;5273;51.290;6.918;2023-09-19T14:59:02;2.30;;;1.13;;
10450;SDS011;5273;51.290;6.918;2023-09-19T15:01:29;2.47;;;1.00;;
10450;SDS011;5273;51.290;6.918;2023-09-19T15:03:57;7.85;;;1.67;;
10450;SDS011;5273;51.290;6.918;2023-09-19T15:06:25;3.35;;;1.30;;
10450;SDS011;5273;51.290;6.918;2023-09-19T15:08:52;4.95;;;1.67;;
10450;SDS011;5273;51.290;6.918;2023-09-19T15:11:19;2.22;;;1.00;;
10450;SDS011;5273;51.290;6.918;2023-09-19T15:13:50;2.65;;;1.48;;
10450;SDS011;5273;51.290;6.918;2023-09-19T15:16:18;3.35;;;1.20;;
10450;SDS011;5273;51.290;6.918;2023-09-19T15:18:45;2.88;;;1.17;;
10450;SDS011;5273;51.290;6.918;2023-09-19T15:21:13;2.88;;;1.10;;
10450;SDS011;5273;51.290;6.918;2023-09-19T15:23:41;4.00;;;1.17;;
10450;SDS011;5273;51.290;6.918;2023-09-19T15:26:10;3.15;;;1.02;;
10450;SDS011;5273;51.290;6.918;2023-09-19T15:28:38;4.97;;;1.15;;
10450;SDS011;5273;51.290;6.918;2023-09-19T15:31:07;5.43;;;1.50;;